createdAt,value
2019-02-06T00:01:43.050Z,37.85
2019-02-06T00:04:10.412Z,39.95
2019-02-06T00:06:37.539Z,42.45
2019-02-06T00:09:10.783Z,44.63
2019-02-06T00:11:38.083Z,38.17
2019-02-06T00:14:05.849Z,41.98
2019-02-06T00:16:33.203Z,40.40
2019-02-06T00:19:00.435Z,41.42
2019-02-06T00:21:27.652Z,42.65
2019-02-06T00:23:55.039Z,38.42
2019-02-06T00:26:22.187Z,37.73
2019-02-06T00:28:49.543Z,37.75
2019-02-06T00:31:16.818Z,40.00
2019-02-06T00:33:44.317Z,39.05
2019-02-06T00:36:11.858Z,38.65
2019-02-06T00:38:39.327Z,38.20
2019-02-06T00:41:06.954Z,40.03
2019-02-06T00:43:34.252Z,35.83
2019-02-06T00:46:01.591Z,43.70
2019-02-06T00:48:28.623Z,37.53
2019-02-06T00:50:55.595Z,39.57
2019-02-06T00:53:23.825Z,40.65
2019-02-06T00:55:51.164Z,40.65
2019-02-06T00:58:18.894Z,37.13
2019-02-06T01:00:46.537Z,40.25
2019-02-06T01:03:14.427Z,37.08
2019-02-06T01:05:41.752Z,37.80
2019-02-06T01:08:09.530Z,37.48
2019-02-06T01:10:37.144Z,36.13
2019-02-06T01:13:04.497Z,33.35
2019-02-06T01:15:32.875Z,34.05
2019-02-06T01:18:00.155Z,38.70
2019-02-06T01:20:27.407Z,37.30
2019-02-06T01:22:54.611Z,38.73
2019-02-06T01:25:21.730Z,35.70
2019-02-06T01:27:50.015Z,37.45
2019-02-06T01:30:25.312Z,32.38
2019-02-06T01:32:52.457Z,36.30
2019-02-06T01:35:19.628Z,36.58
2019-02-06T01:37:47.015Z,37.35
2019-02-06T01:40:15.758Z,37.40
2019-02-06T01:42:44.033Z,37.48
2019-02-06T01:45:12.467Z,35.83
2019-02-06T01:47:39.694Z,31.42
2019-02-06T01:50:09.982Z,36.90
2019-02-06T01:52:37.713Z,29.72
2019-02-06T01:55:05.813Z,33.95
2019-02-06T01:57:32.878Z,30.43
2019-02-06T02:00:00.216Z,42.43
2019-02-06T02:02:27.884Z,33.48
2019-02-06T02:04:55.559Z,36.73
2019-02-06T02:07:22.705Z,36.03
2019-02-06T02:09:50.247Z,33.28
2019-02-06T02:12:17.588Z,40.15
2019-02-06T02:14:44.763Z,37.25
2019-02-06T02:17:12.116Z,45.98
2019-02-06T02:19:39.286Z,42.58
2019-02-06T02:22:06.709Z,45.20
2019-02-06T02:24:33.727Z,45.38
2019-02-06T02:27:00.798Z,40.38
2019-02-06T02:29:27.795Z,48.85
2019-02-06T02:31:55.213Z,47.90
2019-02-06T02:34:22.316Z,49.30
2019-02-06T02:36:49.510Z,49.13
2019-02-06T02:39:16.687Z,46.15
2019-02-06T02:41:43.799Z,49.98
2019-02-06T02:44:11.253Z,53.28
2019-02-06T02:46:39.133Z,44.38
2019-02-06T02:49:06.385Z,48.98
2019-02-06T02:51:34.262Z,52.62
2019-02-06T02:54:01.325Z,55.30
2019-02-06T02:56:28.559Z,57.03
2019-02-06T02:58:55.688Z,55.95
2019-02-06T03:01:35.033Z,52.43
2019-02-06T03:04:09.990Z,56.98
2019-02-06T03:06:38.841Z,57.33
2019-02-06T03:09:10.764Z,53.40
2019-02-06T03:11:37.931Z,61.35
2019-02-06T03:14:05.044Z,56.55
2019-02-06T03:16:32.263Z,60.43
2019-02-06T03:18:59.691Z,55.23
2019-02-06T03:21:26.783Z,57.08
2019-02-06T03:23:54.011Z,61.70
2019-02-06T03:26:21.196Z,61.65
2019-02-06T03:28:48.284Z,56.83
2019-02-06T03:31:15.477Z,56.75
2019-02-06T03:34:04.786Z,58.38
2019-02-06T03:36:39.892Z,56.60
2019-02-06T03:39:00.841Z,61.33
2019-02-06T03:41:27.963Z,56.80
2019-02-06T03:43:55.446Z,59.20
2019-02-06T03:46:22.863Z,57.03
2019-02-06T03:48:50.671Z,53.65
2019-02-06T03:51:18.238Z,55.73
2019-02-06T03:53:45.412Z,59.00
2019-02-06T03:56:13.712Z,58.70
2019-02-06T03:58:41.717Z,56.88
2019-02-06T04:01:11.375Z,56.70
2019-02-06T04:03:38.005Z,58.60
2019-02-06T04:06:05.267Z,56.60
2019-02-06T04:08:32.543Z,58.80
2019-02-06T04:10:59.667Z,55.90
2019-02-06T04:13:27.568Z,56.90
2019-02-06T04:15:54.632Z,56.45
2019-02-06T04:18:21.873Z,56.68
2019-02-06T04:20:49.183Z,54.85
2019-02-06T04:23:17.451Z,57.08
2019-02-06T04:25:44.882Z,53.75
2019-02-06T04:28:12.803Z,56.65
2019-02-06T04:30:40.231Z,54.48
2019-02-06T04:33:07.289Z,52.50
2019-02-06T04:35:34.443Z,54.73
2019-02-06T04:38:01.822Z,55.12
2019-02-06T04:40:29.188Z,46.58
2019-02-06T04:42:56.438Z,52.20
2019-02-06T04:45:23.571Z,51.25
2019-02-06T04:47:50.737Z,53.13
2019-02-06T04:50:18.054Z,56.28
2019-02-06T04:52:45.528Z,51.45
2019-02-06T04:55:13.748Z,53.17
2019-02-06T04:57:40.849Z,55.10
2019-02-06T05:00:13.038Z,54.50
2019-02-06T05:02:40.295Z,52.40
2019-02-06T05:05:07.954Z,53.05
2019-02-06T05:07:35.486Z,49.63
2019-02-06T05:10:03.175Z,57.35
2019-02-06T05:12:30.550Z,49.38
2019-02-06T05:14:58.442Z,52.38
2019-02-06T05:17:25.515Z,50.50
2019-02-06T05:19:52.692Z,53.65
2019-02-06T05:22:20.074Z,53.48
2019-02-06T05:24:47.130Z,51.85
2019-02-06T05:27:14.460Z,54.10
2019-02-06T05:29:41.923Z,52.67
2019-02-06T05:32:09.367Z,50.20
2019-02-06T05:34:36.907Z,48.52
2019-02-06T05:37:04.376Z,46.95
2019-02-06T05:39:31.488Z,49.45
2019-02-06T05:41:58.601Z,49.08
2019-02-06T05:44:25.718Z,53.68
2019-02-06T05:46:52.833Z,50.20
2019-02-06T05:49:20.117Z,47.88
2019-02-06T05:51:47.766Z,46.20
2019-02-06T05:54:15.496Z,45.83
2019-02-06T05:56:44.194Z,47.85
2019-02-06T05:59:11.331Z,48.00
2019-02-06T06:01:38.635Z,49.45
2019-02-06T06:04:05.985Z,45.33
2019-02-06T06:06:33.147Z,44.88
2019-02-06T06:09:00.370Z,47.10
2019-02-06T06:11:27.512Z,47.55
2019-02-06T06:13:55.074Z,47.43
2019-02-06T06:16:22.224Z,44.93
2019-02-06T06:18:49.374Z,48.05
2019-02-06T06:21:16.558Z,41.00
2019-02-06T06:23:44.183Z,41.63
2019-02-06T06:26:11.603Z,43.17
2019-02-06T06:28:38.716Z,44.42
2019-02-06T06:31:06.068Z,45.23
2019-02-06T06:33:33.781Z,41.50
2019-02-06T06:36:01.258Z,41.80
2019-02-06T06:38:28.784Z,40.90
2019-02-06T06:40:56.439Z,40.63
2019-02-06T06:43:23.646Z,42.50
2019-02-06T06:45:51.051Z,43.50
2019-02-06T06:48:18.376Z,38.35
2019-02-06T06:50:45.931Z,39.53
2019-02-06T06:53:13.083Z,39.27
2019-02-06T06:55:40.363Z,41.42
2019-02-06T06:58:08.065Z,37.25
2019-02-06T07:00:36.064Z,39.73
2019-02-06T07:03:03.513Z,36.80
2019-02-06T07:05:31.074Z,36.13
2019-02-06T07:08:09.328Z,41.30
2019-02-06T07:10:27.475Z,37.10
2019-02-06T07:12:54.463Z,38.28
2019-02-06T07:15:23.974Z,35.30
2019-02-06T07:17:51.698Z,37.17
2019-02-06T07:20:19.235Z,32.55
2019-02-06T07:22:46.540Z,38.33
2019-02-06T07:25:15.584Z,36.15
2019-02-06T07:27:43.209Z,37.15
2019-02-06T07:30:22.800Z,32.58
2019-02-06T07:32:56.893Z,35.03
2019-02-06T07:35:24.503Z,35.63
2019-02-06T07:37:51.857Z,30.35
2019-02-06T07:40:19.046Z,31.33
2019-02-06T07:42:46.325Z,32.25
2019-02-06T07:45:15.322Z,30.15
2019-02-06T07:47:42.961Z,36.28
2019-02-06T07:50:16.198Z,33.92
2019-02-06T07:52:43.524Z,31.42
2019-02-06T07:55:11.327Z,32.90
2019-02-06T07:57:38.759Z,30.00
2019-02-06T08:00:06.454Z,25.62
2019-02-06T08:02:34.756Z,27.55
2019-02-06T08:05:02.065Z,24.10
2019-02-06T08:07:29.282Z,25.40
2019-02-06T08:09:56.711Z,29.50
2019-02-06T08:12:23.718Z,25.82
2019-02-06T08:14:51.153Z,24.27
2019-02-06T08:17:18.288Z,27.65
2019-02-06T08:19:45.712Z,25.77
2019-02-06T08:22:13.015Z,26.70
2019-02-06T08:24:40.145Z,24.07
2019-02-06T08:27:07.975Z,28.05
2019-02-06T08:29:35.120Z,20.97
2019-02-06T08:32:03.062Z,24.85
2019-02-06T08:34:30.666Z,24.98
2019-02-06T08:36:58.043Z,27.58
2019-02-06T08:39:25.150Z,24.12
2019-02-06T08:41:52.642Z,23.05
2019-02-06T08:44:20.001Z,23.35
2019-02-06T08:46:47.154Z,24.72
2019-02-06T08:49:14.499Z,24.37
2019-02-06T08:51:41.675Z,23.47
2019-02-06T08:54:13.699Z,17.65
2019-02-06T08:56:41.170Z,19.67
2019-02-06T08:59:09.856Z,22.07
2019-02-06T09:01:37.260Z,21.07
2019-02-06T09:04:04.811Z,21.42
2019-02-06T09:06:32.182Z,18.10
2019-02-06T09:09:00.175Z,18.95
2019-02-06T09:11:27.479Z,21.30
2019-02-06T09:13:54.480Z,17.70
2019-02-06T09:16:22.590Z,20.12
2019-02-06T09:18:49.931Z,20.15
2019-02-06T09:21:17.399Z,21.17
2019-02-06T09:23:44.640Z,19.35
2019-02-06T09:26:12.097Z,21.80
2019-02-06T09:28:41.565Z,17.55
2019-02-06T09:31:08.692Z,19.37
2019-02-06T09:33:35.904Z,19.82
2019-02-06T09:36:03.249Z,16.27
2019-02-06T09:38:30.723Z,18.57
2019-02-06T09:40:57.981Z,20.97
2019-02-06T09:43:27.584Z,18.32
2019-02-06T09:45:56.943Z,18.45
2019-02-06T09:48:23.786Z,17.87
2019-02-06T09:50:50.874Z,18.60
2019-02-06T09:53:18.039Z,19.15
2019-02-06T09:55:45.145Z,19.42
2019-02-06T09:58:12.160Z,21.05
2019-02-06T10:00:39.693Z,18.80
2019-02-06T10:03:07.050Z,19.80
2019-02-06T10:05:34.439Z,19.35
2019-02-06T10:08:01.591Z,17.30
2019-02-06T10:10:30.133Z,16.42
2019-02-06T10:12:57.800Z,16.45
2019-02-06T10:15:27.098Z,16.65
2019-02-06T10:17:56.395Z,16.40
2019-02-06T10:20:25.855Z,16.00
2019-02-06T10:22:53.667Z,15.60
2019-02-06T10:25:21.013Z,14.63
2019-02-06T10:27:48.610Z,14.25
2019-02-06T10:30:20.948Z,16.05
2019-02-06T10:32:49.563Z,16.50
2019-02-06T10:35:17.460Z,14.87
2019-02-06T10:37:46.839Z,15.40
2019-02-06T10:40:14.207Z,16.77
2019-02-06T10:42:41.437Z,15.28
2019-02-06T10:45:09.146Z,17.00
2019-02-06T10:47:36.424Z,14.28
2019-02-06T10:50:04.217Z,14.60
2019-02-06T10:52:31.834Z,14.18
2019-02-06T10:54:59.074Z,15.32
2019-02-06T10:57:26.329Z,17.27
2019-02-06T10:59:53.538Z,16.90
2019-02-06T11:02:20.896Z,15.08
2019-02-06T11:04:48.974Z,15.55
2019-02-06T11:07:16.102Z,15.23
2019-02-06T11:09:46.627Z,15.83
2019-02-06T11:12:12.142Z,15.20
2019-02-06T11:14:39.190Z,15.70
2019-02-06T11:17:06.410Z,15.53
2019-02-06T11:19:33.560Z,14.53
2019-02-06T11:22:00.762Z,17.40
2019-02-06T11:24:27.954Z,13.35
2019-02-06T11:26:54.941Z,15.35
2019-02-06T11:29:22.546Z,16.97
2019-02-06T11:31:49.719Z,16.65
2019-02-06T11:34:17.034Z,16.62
2019-02-06T11:36:44.174Z,15.98
2019-02-06T11:39:17.819Z,14.73
2019-02-06T11:41:45.479Z,15.05
2019-02-06T11:44:13.163Z,13.22
2019-02-06T11:46:40.373Z,14.68
2019-02-06T11:49:07.991Z,13.58
2019-02-06T11:51:35.230Z,14.10
2019-02-06T11:54:02.882Z,14.58
2019-02-06T11:56:30.158Z,13.45
2019-02-06T11:58:57.715Z,16.67
2019-02-06T12:01:30.982Z,13.48
2019-02-06T12:03:58.091Z,13.83
2019-02-06T12:06:25.322Z,15.25
2019-02-06T12:08:52.880Z,14.28
2019-02-06T12:11:19.995Z,13.70
2019-02-06T12:13:47.158Z,13.68
2019-02-06T12:16:14.412Z,16.42
2019-02-06T12:18:41.779Z,13.83
2019-02-06T12:21:09.218Z,16.42
2019-02-06T12:23:36.283Z,15.60
2019-02-06T12:26:04.015Z,15.20
2019-02-06T12:28:31.832Z,16.75
2019-02-06T12:30:59.056Z,17.30
2019-02-06T12:33:27.413Z,16.45
2019-02-06T12:35:54.662Z,14.65
2019-02-06T12:38:21.889Z,20.17
2019-02-06T12:40:49.319Z,19.52
2019-02-06T12:43:16.962Z,16.45
2019-02-06T12:45:44.149Z,16.82
2019-02-06T12:48:11.394Z,16.32
2019-02-06T12:50:38.630Z,17.65
2019-02-06T12:53:05.926Z,14.18
2019-02-06T12:55:34.713Z,15.20
2019-02-06T12:58:02.063Z,16.67
2019-02-06T13:00:30.926Z,16.07
2019-02-06T13:03:00.053Z,13.18
2019-02-06T13:05:27.608Z,15.43
2019-02-06T13:07:54.942Z,12.80
2019-02-06T13:10:33.497Z,16.55
2019-02-06T13:12:51.892Z,15.60
2019-02-06T13:15:19.050Z,14.93
2019-02-06T13:17:46.447Z,15.68
2019-02-06T13:20:20.990Z,16.00
2019-02-06T13:22:48.160Z,16.52
2019-02-06T13:25:15.531Z,16.93
2019-02-06T13:27:42.636Z,16.75
2019-02-06T13:30:13.748Z,13.53
2019-02-06T13:32:41.198Z,16.02
2019-02-06T13:35:09.581Z,13.00
2019-02-06T13:37:36.890Z,13.03
2019-02-06T13:40:07.481Z,15.18
2019-02-06T13:42:34.606Z,15.88
2019-02-06T13:45:02.268Z,16.42
2019-02-06T13:47:29.542Z,16.55
2019-02-06T13:49:57.403Z,15.15
2019-02-06T13:52:25.213Z,15.40
2019-02-06T13:54:52.263Z,14.53
2019-02-06T13:57:19.511Z,13.28
2019-02-06T13:59:46.901Z,12.10
2019-02-06T14:02:14.115Z,14.63
2019-02-06T14:04:41.300Z,14.75
2019-02-06T14:07:08.419Z,12.40
2019-02-06T14:09:35.951Z,13.08
2019-02-06T14:12:03.692Z,12.37
2019-02-06T14:14:30.794Z,14.40
2019-02-06T14:16:57.947Z,11.90
2019-02-06T14:19:25.011Z,13.32
2019-02-06T14:21:52.389Z,12.47
2019-02-06T14:25:17.015Z,13.43
2019-02-06T14:27:50.545Z,13.50
2019-02-06T14:30:38.254Z,12.00
2019-02-06T14:33:22.946Z,12.07
2019-02-06T14:36:26.369Z,14.43
2019-02-06T14:39:35.681Z,13.58
2019-02-06T14:42:35.610Z,11.12
2019-02-06T14:45:59.192Z,10.05
2019-02-06T14:48:50.912Z,12.73
2019-02-06T14:52:03.675Z,13.78
2019-02-06T14:55:03.490Z,13.62
2019-02-06T14:58:03.423Z,14.43
2019-02-06T15:00:59.921Z,13.80
2019-02-06T15:03:48.236Z,12.73
2019-02-06T15:06:57.990Z,12.15
2019-02-06T15:10:09.430Z,13.83
2019-02-06T15:13:18.705Z,14.25
2019-02-06T15:15:54.561Z,14.18
2019-02-06T15:19:03.426Z,13.08
2019-02-06T15:21:41.086Z,13.18
2019-02-06T15:24:55.885Z,13.85
2019-02-06T15:27:34.378Z,15.35
2019-02-06T15:31:09.088Z,15.78
2019-02-06T15:34:10.071Z,12.85
2019-02-06T15:37:07.305Z,11.20
2019-02-06T15:40:16.122Z,13.58
2019-02-06T15:43:40.079Z,13.78
2019-02-06T15:46:23.466Z,13.32
2019-02-06T15:49:22.555Z,14.05
2019-02-06T15:52:24.970Z,13.50
2019-02-06T15:55:46.819Z,12.78
2019-02-06T15:58:36.719Z,14.95
2019-02-06T16:01:31.728Z,15.45
2019-02-06T16:04:59.990Z,14.60
2019-02-06T16:07:52.213Z,15.53
2019-02-06T16:10:46.366Z,16.30
2019-02-06T16:13:40.610Z,15.48
2019-02-06T16:16:33.367Z,14.95
2019-02-06T16:19:28.290Z,15.85
2019-02-06T16:22:41.989Z,16.97
2019-02-06T16:25:28.670Z,14.80
2019-02-06T16:28:05.599Z,14.63
2019-02-06T16:30:53.712Z,16.23
2019-02-06T16:34:04.818Z,16.12
2019-02-06T16:36:59.746Z,16.82
2019-02-06T16:39:39.658Z,17.35
2019-02-06T16:42:54.660Z,16.70
2019-02-06T16:45:35.219Z,18.20
2019-02-06T16:48:27.613Z,17.55
2019-02-06T16:51:29.042Z,19.02
2019-02-06T16:54:41.636Z,17.32
2019-02-06T16:57:37.047Z,19.00
2019-02-06T17:01:17.109Z,18.82
2019-02-06T17:04:03.517Z,18.87
2019-02-06T17:07:02.715Z,18.23
2019-02-06T17:10:02.351Z,19.80
2019-02-06T17:13:05.303Z,21.45
2019-02-06T17:16:17.482Z,24.70
2019-02-06T17:19:04.255Z,20.48
2019-02-06T17:22:01.116Z,23.25
2019-02-06T17:24:44.784Z,22.32
2019-02-06T17:27:59.484Z,21.62
2019-02-06T17:30:47.637Z,22.48
2019-02-06T17:33:27.911Z,24.87
2019-02-06T17:36:10.483Z,23.65
2019-02-06T17:39:08.936Z,24.90
2019-02-06T17:42:01.543Z,29.40
2019-02-06T17:45:29.327Z,30.57
2019-02-06T17:48:46.907Z,23.98
2019-02-06T17:51:42.434Z,29.90
2019-02-06T17:54:25.786Z,28.55
2019-02-06T17:56:53.129Z,28.73
2019-02-06T17:59:20.543Z,30.50
2019-02-06T18:01:51.438Z,28.60
2019-02-06T18:04:27.781Z,31.23
2019-02-06T18:06:55.422Z,31.33
2019-02-06T18:09:23.311Z,29.85
2019-02-06T18:11:51.398Z,33.75
2019-02-06T18:14:18.814Z,32.25
2019-02-06T18:16:45.967Z,31.30
2019-02-06T18:19:13.112Z,29.90
2019-02-06T18:21:40.454Z,34.30
2019-02-06T18:24:07.931Z,37.65
2019-02-06T18:26:40.593Z,33.65
2019-02-06T18:29:08.415Z,36.00
2019-02-06T18:31:35.775Z,37.70
2019-02-06T18:34:06.197Z,35.80
2019-02-06T18:36:33.654Z,33.50
2019-02-06T18:39:00.899Z,36.55
2019-02-06T18:41:28.341Z,36.33
2019-02-06T18:43:55.917Z,36.58
2019-02-06T18:46:23.139Z,35.20
2019-02-06T18:48:50.483Z,36.15
2019-02-06T18:51:17.605Z,38.92
2019-02-06T18:53:44.887Z,39.53
2019-02-06T18:56:12.112Z,39.05
2019-02-06T18:58:39.559Z,39.75
2019-02-06T19:01:06.815Z,38.67
2019-02-06T19:03:38.586Z,39.25
2019-02-06T19:06:05.965Z,36.15
2019-02-06T19:08:33.496Z,40.58
2019-02-06T19:11:01.252Z,34.30
2019-02-06T19:13:28.638Z,38.95
2019-02-06T19:15:56.827Z,38.58
2019-02-06T19:18:24.370Z,35.80
2019-02-06T19:20:51.631Z,38.50
2019-02-06T19:23:19.196Z,36.53
2019-02-06T19:25:47.058Z,40.28
2019-02-06T19:28:14.715Z,40.50
2019-02-06T19:30:42.077Z,37.65
2019-02-06T19:33:09.405Z,41.48
2019-02-06T19:35:37.376Z,37.67
2019-02-06T19:38:05.983Z,37.45
2019-02-06T19:40:34.027Z,39.25
2019-02-06T19:43:02.682Z,37.78
2019-02-06T19:45:31.533Z,38.48
2019-02-06T19:47:59.379Z,39.30
2019-02-06T19:50:29.316Z,38.53
2019-02-06T19:52:56.845Z,43.02
2019-02-06T19:55:27.628Z,42.78
2019-02-06T19:57:54.932Z,38.88
2019-02-06T20:00:25.106Z,40.08
2019-02-06T20:02:54.326Z,41.73
2019-02-06T20:05:21.828Z,42.00
2019-02-06T20:07:49.247Z,39.48
2019-02-06T20:10:19.375Z,45.85
2019-02-06T20:12:46.934Z,43.78
2019-02-06T20:15:15.234Z,46.45
2019-02-06T20:17:42.481Z,37.45
2019-02-06T20:20:13.169Z,42.88
2019-02-06T20:22:41.383Z,39.58
2019-02-06T20:25:10.288Z,38.78
2019-02-06T20:27:37.534Z,39.03
2019-02-06T20:30:07.545Z,40.70
2019-02-06T20:32:38.203Z,40.40
2019-02-06T20:35:07.491Z,38.23
2019-02-06T20:37:34.945Z,38.75
2019-02-06T20:40:02.559Z,36.77
2019-02-06T20:42:30.390Z,37.50
2019-02-06T20:44:57.710Z,34.60
2019-02-06T20:47:24.886Z,35.15
2019-02-06T20:49:52.096Z,36.63
2019-02-06T20:52:19.361Z,37.05
2019-02-06T20:54:46.743Z,36.28
2019-02-06T20:57:15.774Z,32.38
2019-02-06T20:59:43.135Z,32.83
2019-02-06T21:02:11.033Z,34.05
2019-02-06T21:04:41.045Z,33.40
2019-02-06T21:07:08.720Z,35.48
2019-02-06T21:09:36.167Z,36.40
2019-02-06T21:12:04.454Z,34.80
2019-02-06T21:14:31.903Z,36.48
2019-02-06T21:16:59.414Z,37.35
2019-02-06T21:19:28.272Z,37.45
2019-02-06T21:21:55.506Z,34.67
2019-02-06T21:24:23.060Z,36.33
2019-02-06T21:26:50.271Z,36.93
2019-02-06T21:29:17.643Z,40.23
2019-02-06T21:31:45.127Z,35.55
2019-02-06T21:34:12.955Z,36.68
2019-02-06T21:36:40.627Z,36.93
2019-02-06T21:39:08.569Z,37.13
2019-02-06T21:41:37.266Z,39.38
2019-02-06T21:44:04.886Z,38.67
2019-02-06T21:46:32.379Z,35.25
2019-02-06T21:49:00.650Z,40.65
2019-02-06T21:51:28.337Z,38.33
2019-02-06T21:53:56.239Z,38.02
2019-02-06T21:56:23.798Z,40.43
2019-02-06T21:58:51.048Z,41.25
2019-02-06T22:01:27.683Z,38.20
2019-02-06T22:03:54.979Z,42.95
2019-02-06T22:06:22.195Z,43.98
2019-02-06T22:08:49.334Z,42.27
2019-02-06T22:11:16.999Z,45.67
2019-02-06T22:13:54.870Z,52.85
2019-02-06T22:16:15.229Z,49.70
2019-02-06T22:18:42.806Z,41.80
2019-02-06T22:21:10.308Z,46.33
2019-02-06T22:23:37.908Z,50.73
2019-02-06T22:26:05.069Z,47.78
2019-02-06T22:28:32.957Z,46.68
2019-02-06T22:31:00.851Z,46.10
2019-02-06T22:33:28.183Z,51.33
2019-02-06T22:35:55.222Z,53.80
2019-02-06T22:38:22.419Z,51.88
2019-02-06T22:40:49.595Z,45.85
2019-02-06T22:43:17.219Z,48.02
2019-02-06T22:45:44.888Z,44.13
2019-02-06T22:48:11.983Z,49.27
2019-02-06T22:50:39.376Z,50.70
2019-02-06T22:53:06.759Z,49.27
2019-02-06T22:55:34.259Z,49.45
2019-02-06T22:58:01.426Z,48.60
2019-02-06T23:00:45.170Z,48.40
2019-02-06T23:03:13.074Z,52.15
2019-02-06T23:05:40.529Z,47.03
2019-02-06T23:08:07.812Z,52.67
2019-02-06T23:10:36.857Z,49.80
2019-02-06T23:13:04.410Z,46.37
2019-02-06T23:15:31.891Z,53.65
2019-02-06T23:17:59.203Z,57.80
2019-02-06T23:20:26.731Z,54.25
2019-02-06T23:22:54.106Z,54.90
2019-02-06T23:25:21.458Z,58.25
2019-02-06T23:27:48.602Z,52.83
2019-02-06T23:30:16.102Z,57.58
2019-02-06T23:32:43.922Z,52.30
2019-02-06T23:35:11.219Z,52.05
2019-02-06T23:37:38.412Z,50.08
2019-02-06T23:40:07.707Z,53.87
2019-02-06T23:42:34.917Z,50.23
2019-02-06T23:45:02.451Z,57.93
2019-02-06T23:47:29.570Z,53.58
2019-02-06T23:49:57.147Z,58.20
2019-02-06T23:52:24.379Z,51.98
2019-02-06T23:54:51.495Z,52.55
2019-02-06T23:57:18.605Z,50.67
2019-02-06T23:59:45.994Z,52.50
